Time;durP1;ratioP1;P1;durP2;ratioP2;P2;SDS_P1;SDS_P2;PMS_P1;PMS_P2;Temp;Humidity;BMP_temperature;BMP_pressure;BME280_temperature;BME280_humidity;BME280_pressure;Samples;Min_cycle;Max_cycle;Signal;HPM_P1;HPM_P2
2023/03/11 05:05:05;;;;;;;0.88;0.88;;;1.10;99.90;;;;;;5620267;22;20239;-68
2023/03/11 05:07:31;;;;;;;0.73;0.73;;;1.00;99.90;;;;;;5054224;28;20279;-67
2023/03/11 05:09:56;;;;;;;1.30;1.20;;;1.00;99.90;;;;;;5054303;28;20637;-67
2023/03/11 05:12:22;;;;;;;0.70;0.70;;;1.00;99.90;;;;;;5053650;28;20181;-69
2023/03/11 05:14:47;;;;;;;0.80;0.80;;;1.00;99.90;;;;;;5054041;28;20221;-68
2023/03/11 05:17:13;;;;;;;0.63;0.63;;;1.00;99.90;;;;;;5046007;28;20193;-68
2023/03/11 05:19:39;;;;;;;1.70;1.60;;;1.00;99.90;;;;;;5034604;28;20251;-68
2023/03/11 05:22:06;;;;;;;4.27;1.13;;;1.00;99.90;;;;;;5034563;28;20412;-68
2023/03/11 05:24:32;;;;;;;2.15;1.65;;;1.00;99.90;;;;;;5034060;28;20436;-68
2023/03/11 05:26:58;;;;;;;0.70;0.70;;;1.00;99.90;;;;;;5036078;28;20196;-68
2023/03/11 05:29:24;;;;;;;1.50;0.87;;;1.10;99.90;;;;;;5037075;28;20181;-68
2023/03/11 05:31:50;;;;;;;0.80;0.80;;;1.10;99.90;;;;;;5037151;28;20172;-68
2023/03/11 05:34:16;;;;;;;0.93;0.93;;;1.00;99.90;;;;;;5034794;28;20200;-69
2023/03/11 05:36:42;;;;;;;1.45;1.35;;;1.00;99.90;;;;;;5036953;28;20568;-69
2023/03/11 05:39:08;;;;;;;1.17;1.08;;;0.90;99.90;;;;;;5035231;28;20209;-69
2023/03/11 05:41:33;;;;;;;1.33;0.90;;;0.90;99.90;;;;;;5034122;28;20178;-69
2023/03/11 05:43:59;;;;;;;0.70;0.70;;;0.80;99.90;;;;;;5033360;28;20495;-68
2023/03/11 05:46:25;;;;;;;1.63;1.27;;;0.80;99.90;;;;;;5033725;28;20240;-68
2023/03/11 05:48:51;;;;;;;0.80;0.60;;;0.70;99.90;;;;;;5039100;28;20178;-68
2023/03/11 05:51:16;;;;;;;0.83;0.83;;;0.70;99.90;;;;;;5033936;28;20510;-70
2023/03/11 05:53:49;;;;;;;1.43;1.33;;;0.70;99.90;;;;;;5034931;28;20421;-69
2023/03/11 05:56:15;;;;;;;1.40;1.30;;;0.70;99.90;;;;;;5034154;28;20181;-69
2023/03/11 05:58:41;;;;;;;1.02;1.02;;;0.70;99.90;;;;;;5034153;28;20542;-68
2023/03/11 06:01:11;;;;;;;2.10;0.80;;;0.70;99.90;;;;;;5033196;28;20197;-69
2023/03/11 06:03:37;;;;;;;2.00;1.90;;;0.70;99.90;;;;;;5033250;28;20583;-70
2023/03/11 06:06:06;;;;;;;0.77;0.77;;;0.60;99.90;;;;;;5033367;28;20561;-70
2023/03/11 06:08:35;;;;;;;1.60;1.45;;;0.70;99.90;;;;;;5033026;28;20202;-70
2023/03/11 06:11:10;;;;;;;1.58;1.50;;;0.70;99.90;;;;;;5032624;28;20183;-69
2023/03/11 06:13:37;;;;;;;1.35;0.95;;;0.70;99.90;;;;;;5023940;28;20212;-69
2023/03/11 06:16:03;;;;;;;1.10;1.00;;;0.70;99.90;;;;;;5032405;28;20534;-68
2023/03/11 06:18:29;;;;;;;0.80;0.80;;;0.90;99.90;;;;;;5032872;28;20184;-68
2023/03/11 06:20:58;;;;;;;0.83;0.83;;;1.00;99.90;;;;;;5032354;28;20182;-68
2023/03/11 06:23:27;;;;;;;1.88;1.08;;;1.10;99.90;;;;;;5031629;28;20486;-69
2023/03/11 06:25:58;;;;;;;0.80;0.80;;;1.30;99.90;;;;;;5033080;28;20230;-70
2023/03/11 06:28:28;;;;;;;0.73;0.73;;;1.40;99.90;;;;;;5031851;28;20268;-69
2023/03/11 06:30:55;;;;;;;1.13;1.00;;;1.40;99.90;;;;;;5031943;28;20660;-68
2023/03/11 06:33:22;;;;;;;1.55;1.23;;;1.50;99.90;;;;;;5032203;28;20261;-69
2023/03/11 06:35:58;;;;;;;5.97;0.77;;;1.50;99.90;;;;;;5032745;28;20258;-70
2023/03/11 06:38:23;;;;;;;2.15;0.80;;;1.60;99.90;;;;;;5032364;28;20203;-69
2023/03/11 06:40:49;;;;;;;0.80;0.80;;;1.80;99.90;;;;;;5033567;28;20697;-69
2023/03/11 06:43:15;;;;;;;0.93;0.90;;;1.90;99.90;;;;;;5032738;28;20174;-70
2023/03/11 06:45:40;;;;;;;1.90;1.30;;;2.00;99.90;;;;;;5032616;28;20190;-70
2023/03/11 06:48:06;;;;;;;0.87;0.87;;;2.10;99.90;;;;;;5031522;28;20190;-69
2023/03/11 06:50:32;;;;;;;0.60;0.60;;;2.20;99.90;;;;;;5031440;28;20174;-69
2023/03/11 06:52:57;;;;;;;1.67;1.10;;;2.30;99.90;;;;;;5031625;28;20174;-69
2023/03/11 06:55:23;;;;;;;1.13;0.80;;;2.40;99.90;;;;;;5032969;28;20190;-70
2023/03/11 06:57:48;;;;;;;0.80;0.80;;;2.50;99.90;;;;;;5032560;28;20206;-71
2023/03/11 07:00:15;;;;;;;1.43;1.17;;;2.60;99.90;;;;;;5033009;28;20209;-68
2023/03/11 07:02:41;;;;;;;3.55;1.50;;;2.70;99.90;;;;;;5031268;28;20202;-67
2023/03/11 07:05:07;;;;;;;0.70;0.70;;;3.10;99.90;;;;;;5032123;28;20193;-67
2023/03/11 07:07:32;;;;;;;1.90;0.83;;;3.60;99.90;;;;;;5032254;28;20204;-69
2023/03/11 07:09:59;;;;;;;1.40;1.30;;;4.10;99.90;;;;;;5032301;28;20511;-69
2023/03/11 07:12:25;;;;;;;4.15;0.90;;;4.60;99.90;;;;;;5033127;28;20160;-68
2023/03/11 07:14:55;;;;;;;1.27;0.70;;;5.10;99.90;;;;;;5031113;28;20293;-69
2023/03/11 07:17:20;;;;;;;1.92;1.25;;;5.40;99.90;;;;;;5032368;28;20190;-67
2023/03/11 07:19:46;;;;;;;1.20;1.13;;;5.90;99.10;;;;;;5032716;28;20184;-69
2023/03/11 07:22:12;;;;;;;1.20;1.13;;;6.20;98.80;;;;;;5032795;28;20254;-69
2023/03/11 07:24:37;;;;;;;1.20;1.10;;;6.70;98.30;;;;;;5031552;28;20665;-69
2023/03/11 07:27:03;;;;;;;0.77;0.77;;;7.30;97.00;;;;;;5032544;28;20206;-69
2023/03/11 07:29:28;;;;;;;1.43;1.43;;;7.80;95.50;;;;;;5033926;28;20663;-69
2023/03/11 07:31:54;;;;;;;1.43;1.07;;;8.20;94.40;;;;;;5036058;28;20634;-68
2023/03/11 07:34:20;;;;;;;1.60;1.43;;;8.50;94.00;;;;;;5035371;28;20201;-68
2023/03/11 07:36:45;;;;;;;0.80;0.80;;;9.00;93.60;;;;;;5035619;28;20514;-69
2023/03/11 07:39:16;;;;;;;2.00;1.30;;;9.40;92.60;;;;;;5035608;28;20192;-69
2023/03/11 07:41:43;;;;;;;0.90;0.90;;;9.90;91.30;;;;;;5035762;28;20190;-70
2023/03/11 07:44:11;;;;;;;1.43;0.90;;;10.30;90.00;;;;;;5035243;28;20437;-70
2023/03/11 07:46:37;;;;;;;1.70;1.23;;;10.90;89.10;;;;;;5035566;28;20471;-69
2023/03/11 07:49:03;;;;;;;4.67;1.40;;;11.50;85.50;;;;;;5035746;28;20375;-68
2023/03/11 07:51:31;;;;;;;3.60;1.37;;;12.10;83.70;;;;;;5035666;28;20178;-69
2023/03/11 07:53:58;;;;;;;1.50;1.23;;;12.70;81.70;;;;;;5035104;28;20543;-69
2023/03/11 07:56:27;;;;;;;7.17;1.23;;;13.20;80.00;;;;;;5035056;28;20425;-69
2023/03/11 07:58:52;;;;;;;2.80;1.37;;;13.40;76.60;;;;;;5034810;28;20399;-69
2023/03/11 08:01:21;;;;;;;1.73;1.10;;;13.50;75.30;;;;;;5034224;28;20425;-69
2023/03/11 08:03:49;;;;;;;2.77;2.00;;;13.80;74.70;;;;;;5033708;28;20633;-69
2023/03/11 08:06:18;;;;;;;1.03;0.90;;;14.00;74.20;;;;;;5035002;28;20444;-70
2023/03/11 08:08:44;;;;;;;0.70;0.70;;;14.30;72.70;;;;;;5035181;28;20459;-71
2023/03/11 08:11:12;;;;;;;2.03;1.33;;;14.60;72.70;;;;;;5035465;28;20404;-73
2023/03/11 08:13:41;;;;;;;2.63;0.97;;;14.80;71.40;;;;;;5034196;28;20388;-71
2023/03/11 08:16:09;;;;;;;0.80;0.80;;;15.00;70.80;;;;;;5034974;28;20781;-67
2023/03/11 08:18:35;;;;;;;1.10;1.00;;;15.50;68.80;;;;;;5035005;28;20398;-77
2023/03/11 08:21:09;;;;;;;0.87;0.87;;;15.50;67.90;;;;;;5034037;28;20796;-72
2023/03/11 08:23:35;;;;;;;1.97;1.13;;;15.60;68.00;;;;;;5034765;28;20292;-73
2023/03/11 08:26:05;;;;;;;1.13;1.00;;;16.00;68.00;;;;;;5034460;28;20463;-62
2023/03/11 08:28:30;;;;;;;2.50;1.10;;;15.80;65.40;;;;;;5034568;28;20452;-75
2023/03/11 08:30:56;;;;;;;2.57;2.37;;;15.50;65.30;;;;;;5035234;28;20401;-69
2023/03/11 08:33:22;;;;;;;3.60;1.87;;;15.20;65.70;;;;;;5034419;28;20214;-62
2023/03/11 08:35:48;;;;;;;3.73;1.10;;;14.90;66.10;;;;;;5034125;28;20483;-62
2023/03/11 08:38:14;;;;;;;1.50;1.40;;;14.90;66.60;;;;;;5047411;28;20178;-65
2023/03/11 08:40:39;;;;;;;1.13;1.03;;;14.90;67.80;;;;;;5033561;28;20604;-63
2023/03/11 08:43:05;;;;;;;2.13;0.80;;;15.10;67.60;;;;;;5033969;28;20170;-71
2023/03/11 08:45:31;;;;;;;2.17;1.40;;;15.00;67.20;;;;;;5033721;28;20228;-75
2023/03/11 08:47:56;;;;;;;1.27;1.10;;;15.10;66.70;;;;;;5034438;28;20202;-76
2023/03/11 08:50:22;;;;;;;1.50;1.10;;;14.70;65.60;;;;;;5032808;28;20184;-74
2023/03/11 08:52:48;;;;;;;1.10;1.00;;;14.90;67.00;;;;;;5034329;28;20193;-78
2023/03/11 08:55:17;;;;;;;1.30;1.20;;;15.40;65.90;;;;;;5033505;28;20600;-74
2023/03/11 08:57:43;;;;;;;2.50;1.57;;;16.00;65.40;;;;;;5033944;28;20187;-67
2023/03/11 09:00:11;;;;;;;1.27;1.10;;;16.40;63.60;;;;;;5034529;28;20462;-73
2023/03/11 09:02:37;;;;;;;4.17;1.33;;;16.00;61.10;;;;;;5039652;28;20419;-68
2023/03/11 09:05:02;;;;;;;2.50;1.20;;;15.00;61.80;;;;;;5052338;28;20837;-68
2023/03/11 09:07:28;;;;;;;0.93;0.93;;;14.30;62.80;;;;;;5040435;28;20228;-71
2023/03/11 09:09:54;;;;;;;1.20;1.00;;;14.90;66.40;;;;;;5038399;28;20391;-69
2023/03/11 09:12:20;;;;;;;1.47;1.37;;;15.60;64.40;;;;;;5047264;28;20206;-69
2023/03/11 09:14:45;;;;;;;1.60;1.20;;;16.30;64.60;;;;;;5047386;28;20341;-69
2023/03/11 09:17:13;;;;;;;2.60;1.30;;;16.50;63.40;;;;;;5047325;28;20233;-67
2023/03/11 09:19:38;;;;;;;1.37;1.10;;;17.00;63.00;;;;;;5047751;28;20173;-67
2023/03/11 09:22:04;;;;;;;1.30;0.90;;;17.20;61.90;;;;;;5047099;28;20631;-69
2023/03/11 09:24:34;;;;;;;6.03;1.73;;;16.70;59.20;;;;;;5047133;28;20191;-70
2023/03/11 09:27:00;;;;;;;2.07;0.80;;;15.60;59.80;;;;;;5047089;28;20754;-67
2023/03/11 09:29:26;;;;;;;2.00;1.10;;;13.90;63.10;;;;;;5046182;28;20397;-69
2023/03/11 09:31:52;;;;;;;5.50;1.33;;;12.80;65.80;;;;;;5046318;28;20439;-65
2023/03/11 09:34:17;;;;;;;1.80;1.03;;;12.60;68.30;;;;;;5047077;28;20412;-71
2023/03/11 09:36:43;;;;;;;1.23;1.13;;;13.20;67.50;;;;;;5047358;28;20163;-66
2023/03/11 09:39:13;;;;;;;1.47;1.17;;;14.20;66.00;;;;;;5047502;28;20171;-69
2023/03/11 09:41:53;;;;;;;2.33;1.40;;;14.40;64.90;;;;;;5045943;28;20613;-69
2023/03/11 09:44:34;;;;;;;2.07;1.00;;;14.90;64.60;;;;;;5046391;28;20464;-72
2023/03/11 09:47:19;;;;;;;5.37;4.80;;;15.10;63.50;;;;;;5047258;28;20510;-65
2023/03/11 09:50:04;;;;;;;1.00;1.00;;;14.90;62.60;;;;;;5046707;28;20508;-66
2023/03/11 09:52:41;;;;;;;1.53;1.43;;;13.90;63.90;;;;;;5045349;28;20399;-74
2023/03/11 09:55:24;;;;;;;1.73;1.00;;;13.50;64.70;;;;;;5046564;28;20401;-68
2023/03/11 09:57:51;;;;;;;1.67;1.10;;;13.30;65.50;;;;;;5046749;28;20406;-67
2023/03/11 10:00:22;;;;;;;1.80;1.00;;;13.70;64.50;;;;;;5046700;28;20429;-63
2023/03/11 10:02:48;;;;;;;0.83;0.83;;;13.80;62.80;;;;;;5029627;28;20508;-68
2023/03/11 10:05:21;;;;;;;1.00;0.90;;;13.60;62.90;;;;;;5046724;28;20444;-68
2023/03/11 10:07:58;;;;;;;1.00;0.87;;;14.00;64.70;;;;;;5046166;28;20478;-61
2023/03/11 10:10:28;;;;;;;0.70;0.70;;;14.30;64.30;;;;;;5046328;28;20621;-68
2023/03/11 10:13:15;;;;;;;2.33;1.30;;;14.40;62.30;;;;;;5046615;28;20440;-67
2023/03/11 10:16:03;;;;;;;1.50;1.03;;;14.90;62.70;;;;;;5046142;28;20703;-64
2023/03/11 10:19:02;;;;;;;0.60;0.60;;;15.40;62.00;;;;;;5040473;28;20417;-66
2023/03/11 10:21:45;;;;;;;0.60;0.60;;;14.80;58.70;;;;;;5046658;28;20463;-67
2023/03/11 10:24:13;;;;;;;0.70;0.70;;;13.60;59.20;;;;;;5045524;28;20481;-66
2023/03/11 10:27:04;;;;;;;1.17;1.00;;;12.50;60.10;;;;;;5050774;28;20417;-67
2023/03/11 10:29:39;;;;;;;1.43;0.77;;;11.80;63.40;;;;;;5046153;28;20416;-67
2023/03/11 10:32:36;;;;;;;1.43;0.90;;;11.20;67.60;;;;;;5066279;28;20628;-68
2023/03/11 10:35:18;;;;;;;2.40;1.10;;;10.80;68.10;;;;;;5045204;28;20455;-64
2023/03/11 10:37:58;;;;;;;2.87;0.70;;;9.90;69.70;;;;;;5046611;28;20428;-64
2023/03/11 10:40:27;;;;;;;1.50;1.40;;;9.00;74.50;;;;;;5046662;28;20425;-67
2023/03/11 10:42:55;;;;;;;2.00;0.90;;;8.50;76.30;;;;;;5045107;28;20584;-67
2023/03/11 10:45:22;;;;;;;3.03;1.13;;;8.30;79.20;;;;;;5046238;28;20766;-67
2023/03/11 10:47:48;;;;;;;1.30;1.07;;;8.20;80.00;;;;;;5046091;28;20460;-66
2023/03/11 10:50:16;;;;;;;1.70;1.03;;;8.40;80.00;;;;;;5044960;28;20432;-68
2023/03/11 10:53:08;;;;;;;2.30;1.43;;;8.40;78.70;;;;;;5046166;28;20442;-68
2023/03/11 10:55:34;;;;;;;0.80;0.80;;;8.70;82.20;;;;;;5045822;28;20459;-68
2023/03/11 10:58:06;;;;;;;1.90;1.53;;;9.40;80.50;;;;;;5046396;28;20487;-68
2023/03/11 11:00:32;;;;;;;1.47;1.30;;;10.00;76.30;;;;;;5046445;28;20504;-63
2023/03/11 11:02:58;;;;;;;2.07;1.10;;;10.70;74.80;;;;;;5046778;28;20405;-65
2023/03/11 11:05:31;;;;;;;1.70;1.00;;;11.00;73.70;;;;;;5050043;28;20563;-65
2023/03/11 11:08:06;;;;;;;0.93;0.87;;;11.20;73.10;;;;;;5050543;28;20437;-67
2023/03/11 11:10:33;;;;;;;1.60;0.70;;;11.10;70.20;;;;;;5050010;28;20590;-67
2023/03/11 11:13:18;;;;;;;2.00;0.97;;;10.80;68.00;;;;;;5049147;28;20504;-68
2023/03/11 11:15:49;;;;;;;0.90;0.83;;;10.30;66.90;;;;;;5049197;28;20432;-65
2023/03/11 11:18:20;;;;;;;4.73;1.07;;;10.10;69.20;;;;;;5050121;28;20405;-67
2023/03/11 11:21:16;;;;;;;0.80;0.80;;;10.00;68.70;;;;;;5049914;28;20514;-67
2023/03/11 11:24:01;;;;;;;1.63;0.70;;;10.20;69.10;;;;;;5028005;28;20499;-67
2023/03/11 11:26:27;;;;;;;3.47;0.80;;;10.20;68.30;;;;;;5049434;28;20587;-67
2023/03/11 11:29:11;;;;;;;1.23;0.97;;;9.90;69.70;;;;;;5049421;28;20460;-67
2023/03/11 11:31:38;;;;;;;0.73;0.73;;;9.60;69.30;;;;;;5048862;28;20266;-73
2023/03/11 11:34:21;;;;;;;2.50;0.83;;;9.30;72.80;;;;;;5049098;28;20451;-67
2023/03/11 11:36:47;;;;;;;1.17;1.07;;;9.00;71.70;;;;;;5049518;28;20445;-70
2023/03/11 11:39:17;;;;;;;0.87;0.87;;;8.90;70.80;;;;;;5049401;28;20425;-61
2023/03/11 11:41:44;;;;;;;0.60;0.60;;;9.00;72.30;;;;;;5048719;28;20187;-70
2023/03/11 11:44:16;;;;;;;0.82;0.70;;;9.10;70.40;;;;;;5048878;28;20432;-71
2023/03/11 11:46:49;;;;;;;0.90;0.85;;;9.10;66.80;;;;;;5048794;28;20195;-68
2023/03/11 11:49:20;;;;;;;1.48;0.70;;;8.90;67.50;;;;;;5049947;28;20243;-66
2023/03/11 11:52:13;;;;;;;0.90;0.85;;;8.70;73.30;;;;;;5048816;28;20163;-65
2023/03/11 11:54:38;;;;;;;0.70;0.70;;;8.40;74.30;;;;;;5048130;28;20283;-66
2023/03/11 11:57:15;;;;;;;0.60;0.60;;;8.20;73.90;;;;;;5049634;28;20211;-68
2023/03/11 11:59:41;;;;;;;0.60;0.60;;;8.20;75.40;;;;;;5068978;28;20176;-65
2023/03/11 12:02:34;;;;;;;0.73;0.70;;;8.40;75.20;;;;;;5058638;28;20266;-64
2023/03/11 12:05:00;;;;;;;1.67;1.58;;;8.30;74.00;;;;;;5047691;28;20214;-65
2023/03/11 12:07:53;;;;;;;1.50;0.60;;;8.20;72.30;;;;;;5049197;28;20260;-62
2023/03/11 12:10:30;;;;;;;0.70;0.70;;;8.20;73.40;;;;;;5048646;28;20251;-66
2023/03/11 12:13:21;;;;;;;0.68;0.68;;;8.20;75.70;;;;;;5047694;28;20173;-65
2023/03/11 12:15:46;;;;;;;1.13;0.75;;;8.20;72.50;;;;;;5046334;28;20509;-66
2023/03/11 12:18:34;;;;;;;1.07;0.90;;;7.90;72.50;;;;;;5047714;28;20186;-63
2023/03/11 12:21:13;;;;;;;1.95;0.90;;;7.80;77.20;;;;;;5048868;28;20276;-65
2023/03/11 12:23:46;;;;;;;2.25;0.93;;;7.80;74.80;;;;;;5038803;28;20181;-64
2023/03/11 12:26:24;;;;;;;1.15;0.82;;;7.90;74.80;;;;;;5048649;28;20229;-63
2023/03/11 12:29:06;;;;;;;1.48;1.00;;;8.00;74.80;;;;;;5048336;28;20198;-64
2023/03/11 12:31:38;;;;;;;0.60;0.60;;;8.10;74.30;;;;;;5043794;28;20289;-65
2023/03/11 12:34:07;;;;;;;0.90;0.90;;;8.00;71.40;;;;;;5047001;28;20189;-65
2023/03/11 12:36:36;;;;;;;0.60;0.60;;;8.00;70.40;;;;;;5048489;28;20174;-66
2023/03/11 12:39:05;;;;;;;0.77;0.77;;;8.10;72.60;;;;;;5047954;28;20174;-67
2023/03/11 12:41:40;;;;;;;0.70;0.70;;;8.10;72.50;;;;;;5047824;28;20162;-67
2023/03/11 12:44:27;;;;;;;0.98;0.77;;;8.00;72.90;;;;;;5046865;28;20189;-66
2023/03/11 12:46:53;;;;;;;0.90;0.90;;;7.70;74.10;;;;;;5030972;28;20283;-67
2023/03/11 12:49:24;;;;;;;1.17;1.13;;;7.40;75.90;;;;;;5048287;28;20158;-66
2023/03/11 12:52:08;;;;;;;1.30;1.20;;;7.40;76.80;;;;;;5048061;28;20207;-66
2023/03/11 12:54:45;;;;;;;1.05;1.00;;;7.30;77.20;;;;;;5047294;28;20460;-67
2023/03/11 12:57:17;;;;;;;1.58;0.80;;;7.20;78.60;;;;;;5046424;28;20174;-66
2023/03/11 13:00:06;;;;;;;3.05;1.20;;;7.20;76.10;;;;;;5040499;28;20348;-67
2023/03/11 13:03:03;;;;;;;1.00;0.90;;;7.10;75.90;;;;;;5046428;28;20233;-66
2023/03/11 13:06:04;;;;;;;1.05;1.05;;;7.10;74.90;;;;;;5045762;28;20208;-67
2023/03/11 13:08:53;;;;;;;1.23;0.93;;;7.10;75.00;;;;;;5045675;28;20197;-67
2023/03/11 13:11:31;;;;;;;1.33;0.80;;;7.10;74.70;;;;;;5045844;28;20176;-67
2023/03/11 13:14:34;;;;;;;0.80;0.80;;;7.20;75.10;;;;;;5044894;28;20193;-66
2023/03/11 13:17:23;;;;;;;0.70;0.70;;;7.30;76.60;;;;;;5046775;28;20181;-66
2023/03/11 13:19:52;;;;;;;0.73;0.73;;;7.40;74.80;;;;;;5046870;28;20237;-67
2023/03/11 13:22:56;;;;;;;0.80;0.75;;;7.30;72.30;;;;;;5047467;28;20170;-67
2023/03/11 13:25:47;;;;;;;0.90;0.90;;;7.30;72.40;;;;;;5041369;28;20217;-66
2023/03/11 13:28:12;;;;;;;5.78;1.08;;;7.10;74.80;;;;;;5046401;28;20214;-66
2023/03/11 13:30:43;;;;;;;0.83;0.83;;;7.10;75.50;;;;;;5047341;28;20197;-65
2023/03/11 13:33:28;;;;;;;0.80;0.80;;;7.20;77.50;;;;;;5046902;28;20268;-67
2023/03/11 13:36:06;;;;;;;1.10;0.90;;;7.20;75.80;;;;;;5047299;28;20302;-67
2023/03/11 13:38:59;;;;;;;2.70;0.82;;;7.30;73.20;;;;;;5046948;28;20390;-66
2023/03/11 13:41:34;;;;;;;1.25;0.90;;;7.30;74.40;;;;;;5046868;28;20413;-68
2023/03/11 13:44:12;;;;;;;3.72;0.80;;;7.30;73.80;;;;;;5047087;28;20344;-67
2023/03/11 13:46:41;;;;;;;1.65;1.20;;;7.40;74.00;;;;;;5047279;28;20180;-66
2023/03/11 13:49:29;;;;;;;0.98;0.93;;;7.40;73.50;;;;;;5045826;28;20386;-67
2023/03/11 13:51:56;;;;;;;0.85;0.63;;;7.40;74.50;;;;;;5043649;28;20189;-66
2023/03/11 13:54:34;;;;;;;0.70;0.70;;;7.50;75.30;;;;;;5046831;28;20192;-67
2023/03/11 13:57:01;;;;;;;3.90;1.27;;;7.50;75.00;;;;;;5047333;28;20170;-66
2023/03/11 13:59:33;;;;;;;1.10;0.93;;;7.50;74.80;;;;;;5046752;28;20294;-68
2023/03/11 14:02:03;;;;;;;1.00;1.00;;;7.50;75.20;;;;;;5046790;28;20237;-67
2023/03/11 14:04:31;;;;;;;1.25;0.95;;;7.50;75.10;;;;;;5046794;28;20188;-66
2023/03/11 14:06:58;;;;;;;0.88;0.88;;;7.50;76.50;;;;;;5046532;28;20362;-67
2023/03/11 14:09:26;;;;;;;3.85;0.80;;;7.60;76.70;;;;;;5046606;28;20248;-67
2023/03/11 14:11:55;;;;;;;1.52;1.23;;;7.70;76.80;;;;;;5046813;28;20212;-67
2023/03/11 14:14:38;;;;;;;3.15;1.30;;;7.80;75.80;;;;;;5046208;28;20294;-66
2023/03/11 14:17:08;;;;;;;1.35;1.13;;;7.80;73.80;;;;;;5047000;28;20245;-67
2023/03/11 14:19:33;;;;;;;0.82;0.82;;;7.60;73.40;;;;;;5046881;28;20177;-66
2023/03/11 14:21:59;;;;;;;0.90;0.90;;;7.50;74.50;;;;;;5046841;28;20161;-65
2023/03/11 14:24:27;;;;;;;0.90;0.90;;;7.40;74.00;;;;;;5046024;28;20212;-66
2023/03/11 14:26:56;;;;;;;3.90;1.10;;;7.40;75.90;;;;;;5046599;28;20197;-65
2023/03/11 14:29:42;;;;;;;0.85;0.70;;;7.50;75.80;;;;;;5046204;28;20173;-64
2023/03/11 14:32:31;;;;;;;2.05;1.15;;;7.60;75.00;;;;;;5046702;28;20165;-66
2023/03/11 14:34:57;;;;;;;1.40;0.73;;;7.60;74.10;;;;;;5045917;28;20193;-67
2023/03/11 14:37:34;;;;;;;3.25;1.13;;;7.50;74.20;;;;;;5046200;28;20263;-67
2023/03/11 14:40:00;;;;;;;1.30;1.17;;;7.50;74.30;;;;;;5050894;28;20189;-67
2023/03/11 14:42:47;;;;;;;0.60;0.60;;;7.60;72.90;;;;;;5050564;28;20432;-67
2023/03/11 14:45:17;;;;;;;0.88;0.88;;;7.50;73.00;;;;;;5050247;28;20205;-66
2023/03/11 14:47:51;;;;;;;0.60;0.60;;;7.40;73.30;;;;;;5050444;28;20224;-67
2023/03/11 14:50:23;;;;;;;1.40;1.05;;;7.40;75.10;;;;;;5050518;28;20231;-65
2023/03/11 14:52:57;;;;;;;1.40;0.90;;;7.30;74.10;;;;;;5049891;28;20165;-65
2023/03/11 14:55:33;;;;;;;2.90;1.40;;;7.20;75.40;;;;;;5050257;28;20268;-65
2023/03/11 14:58:04;;;;;;;1.20;0.90;;;7.20;76.20;;;;;;5050263;28;20189;-65
2023/03/11 15:00:35;;;;;;;0.75;0.75;;;7.20;76.80;;;;;;5049945;28;20234;-66
2023/03/11 15:03:12;;;;;;;0.95;0.75;;;7.30;76.50;;;;;;5049964;28;20172;-66
2023/03/11 15:05:53;;;;;;;1.15;1.05;;;7.30;76.30;;;;;;5050273;28;20227;-66
2023/03/11 15:08:21;;;;;;;2.65;2.03;;;7.40;76.20;;;;;;5048847;28;20313;-65
2023/03/11 15:11:15;;;;;;;0.80;0.80;;;7.30;75.70;;;;;;5050195;28;20198;-66
2023/03/11 15:13:43;;;;;;;1.52;1.23;;;7.30;77.40;;;;;;5049837;28;20184;-66
2023/03/11 15:16:30;;;;;;;0.80;0.80;;;7.40;76.60;;;;;;5050094;28;20158;-65
2023/03/11 15:18:59;;;;;;;2.15;0.80;;;7.40;77.10;;;;;;5049155;28;20161;-67
2023/03/11 15:21:25;;;;;;;1.23;1.13;;;7.40;77.70;;;;;;5050010;28;20184;-66
2023/03/11 15:24:03;;;;;;;1.23;1.10;;;7.40;76.30;;;;;;5049479;28;20185;-66
2023/03/11 15:26:31;;;;;;;4.13;1.15;;;7.30;76.30;;;;;;5049993;28;20316;-67
2023/03/11 15:29:03;;;;;;;1.13;1.02;;;7.30;77.30;;;;;;5049863;28;20247;-67
2023/03/11 15:31:31;;;;;;;0.50;0.50;;;7.30;77.60;;;;;;5049964;28;20165;-67
2023/03/11 15:34:16;;;;;;;1.08;1.08;;;7.30;77.60;;;;;;5049525;28;20178;-66
2023/03/11 15:36:48;;;;;;;1.33;1.00;;;7.40;78.20;;;;;;5049986;28;20178;-67
2023/03/11 15:39:17;;;;;;;1.08;1.00;;;7.40;77.00;;;;;;5049422;28;20252;-67
2023/03/11 15:42:02;;;;;;;1.10;1.10;;;7.30;77.90;;;;;;5049725;28;20249;-67
2023/03/11 15:44:58;;;;;;;1.60;0.95;;;7.30;77.40;;;;;;5049035;28;20373;-66
2023/03/11 15:47:24;;;;;;;1.00;1.00;;;7.10;77.30;;;;;;5049560;28;20301;-66
2023/03/11 15:49:50;;;;;;;1.10;1.10;;;7.00;78.30;;;;;;5047477;28;20196;-67
2023/03/11 15:52:18;;;;;;;0.87;0.87;;;7.00;79.60;;;;;;5049056;28;20173;-66
2023/03/11 15:54:43;;;;;;;3.15;1.10;;;6.90;79.10;;;;;;5049049;28;20252;-65
2023/03/11 15:57:23;;;;;;;0.80;0.80;;;6.90;79.60;;;;;;5048602;28;20401;-67
2023/03/11 15:59:50;;;;;;;2.65;1.65;;;6.80;79.80;;;;;;5049046;28;20177;-65
2023/03/11 16:02:29;;;;;;;5.60;1.10;;;6.70;79.70;;;;;;5049129;28;20170;-66
2023/03/11 16:04:55;;;;;;;1.40;1.30;;;6.70;80.00;;;;;;5048453;28;20245;-67
2023/03/11 16:07:21;;;;;;;1.25;1.15;;;6.50;80.70;;;;;;5031274;28;20430;-66
2023/03/11 16:09:46;;;;;;;1.40;1.00;;;6.50;80.00;;;;;;5047773;28;20248;-66
2023/03/11 16:12:20;;;;;;;3.13;1.30;;;6.40;80.30;;;;;;5049045;28;20435;-65
2023/03/11 16:14:47;;;;;;;2.15;1.25;;;6.40;80.90;;;;;;5048653;28;20389;-65
2023/03/11 16:17:14;;;;;;;1.10;1.00;;;6.30;81.30;;;;;;5048906;28;20254;-66
2023/03/11 16:19:41;;;;;;;3.22;1.08;;;6.20;80.90;;;;;;5048650;28;20192;-64
2023/03/11 16:22:14;;;;;;;1.02;0.90;;;6.10;81.30;;;;;;5048465;28;20173;-65
2023/03/11 16:24:40;;;;;;;5.07;1.00;;;6.10;81.40;;;;;;5048334;28;20317;-65
2023/03/11 16:27:05;;;;;;;0.93;0.93;;;6.10;80.70;;;;;;5048532;28;20376;-65
2023/03/11 16:29:32;;;;;;;1.73;1.57;;;6.00;80.50;;;;;;5048734;28;20233;-65
2023/03/11 16:31:57;;;;;;;0.90;0.90;;;6.00;80.50;;;;;;5048576;28;20167;-65
2023/03/11 16:34:23;;;;;;;0.90;0.90;;;6.00;80.90;;;;;;5048586;28;20398;-65
2023/03/11 16:36:49;;;;;;;1.07;0.97;;;6.00;81.70;;;;;;5048442;28;20230;-65
2023/03/11 16:39:14;;;;;;;1.13;1.13;;;6.00;81.40;;;;;;5048688;28;20181;-66
2023/03/11 16:41:42;;;;;;;1.33;1.20;;;6.00;80.80;;;;;;5048168;28;20179;-65
2023/03/11 16:44:08;;;;;;;1.20;1.20;;;5.90;80.40;;;;;;5048046;28;20182;-65
2023/03/11 16:46:33;;;;;;;5.23;1.23;;;5.90;81.60;;;;;;5048409;28;20199;-66
2023/03/11 16:48:59;;;;;;;1.83;1.27;;;5.80;82.00;;;;;;5048022;28;20524;-64
2023/03/11 16:51:25;;;;;;;1.13;1.10;;;5.80;82.60;;;;;;5048082;28;20412;-64
2023/03/11 16:53:50;;;;;;;1.87;1.03;;;5.70;82.50;;;;;;5047900;28;20415;-65
2023/03/11 16:56:17;;;;;;;0.80;0.80;;;5.60;82.70;;;;;;5047595;28;20171;-65
2023/03/11 16:58:42;;;;;;;3.05;1.40;;;5.60;84.00;;;;;;5047669;28;20203;-67
2023/03/11 17:01:11;;;;;;;1.17;0.97;;;5.60;84.30;;;;;;5047647;28;20180;-66
2023/03/11 17:03:38;;;;;;;1.23;1.23;;;5.50;84.20;;;;;;5047713;28;20348;-66
2023/03/11 17:06:04;;;;;;;1.80;1.48;;;5.50;84.70;;;;;;5047536;28;20232;-66
2023/03/11 17:08:30;;;;;;;5.63;1.47;;;5.40;84.20;;;;;;5047074;28;20213;-70
2023/03/11 17:10:56;;;;;;;1.15;1.15;;;5.40;84.60;;;;;;5047092;28;20570;-65
2023/03/11 17:13:22;;;;;;;1.50;1.10;;;5.40;84.80;;;;;;5046828;28;20174;-65
2023/03/11 17:16:01;;;;;;;1.30;1.20;;;5.30;85.10;;;;;;5047184;28;20199;-66
2023/03/11 17:18:27;;;;;;;0.90;0.90;;;5.30;85.50;;;;;;5047343;28;20178;-67
2023/03/11 17:20:53;;;;;;;0.80;0.80;;;5.30;85.80;;;;;;5046923;28;20310;-66
2023/03/11 17:23:19;;;;;;;1.10;1.00;;;5.20;86.10;;;;;;5046525;28;20210;-68
2023/03/11 17:25:45;;;;;;;2.97;1.40;;;5.20;85.60;;;;;;5046947;28;20445;-68
2023/03/11 17:28:10;;;;;;;1.23;1.07;;;5.20;85.90;;;;;;5047035;28;20206;-65
2023/03/11 17:30:41;;;;;;;1.03;0.93;;;5.20;85.70;;;;;;5046702;28;20316;-69
2023/03/11 17:33:07;;;;;;;1.45;1.35;;;5.10;85.80;;;;;;5046955;28;20170;-68
2023/03/11 17:35:32;;;;;;;3.80;1.73;;;5.10;86.70;;;;;;5046840;28;20211;-69
2023/03/11 17:37:58;;;;;;;3.30;1.43;;;5.10;86.70;;;;;;5046797;28;20158;-69
2023/03/11 17:40:25;;;;;;;3.50;1.90;;;5.10;86.80;;;;;;5046610;28;20175;-70
2023/03/11 17:42:51;;;;;;;1.38;1.30;;;5.00;86.90;;;;;;5046255;28;20291;-68
2023/03/11 17:45:17;;;;;;;1.87;1.57;;;5.00;86.90;;;;;;5046862;28;20196;-67
2023/03/11 17:47:43;;;;;;;1.37;1.30;;;4.90;86.80;;;;;;5046802;28;20592;-67
2023/03/11 17:50:09;;;;;;;1.60;1.50;;;4.80;87.20;;;;;;5046402;28;20166;-68
2023/03/11 17:52:35;;;;;;;1.05;1.05;;;4.80;87.30;;;;;;5046529;28;20417;-66
2023/03/11 17:55:01;;;;;;;2.03;1.83;;;4.70;87.50;;;;;;5046319;28;20452;-68
2023/03/11 17:57:26;;;;;;;3.50;2.00;;;4.60;87.70;;;;;;5046309;28;20178;-67
2023/03/11 17:59:52;;;;;;;1.93;1.83;;;4.50;89.10;;;;;;5046255;28;20201;-68
2023/03/11 18:02:18;;;;;;;1.43;1.30;;;4.40;89.10;;;;;;5046395;28;20171;-68
2023/03/11 18:04:50;;;;;;;1.65;1.55;;;4.30;88.90;;;;;;5045775;28;20269;-67
2023/03/11 18:07:17;;;;;;;1.55;1.45;;;4.30;89.20;;;;;;5045249;28;20319;-69
2023/03/11 18:09:43;;;;;;;1.55;1.48;;;4.20;89.70;;;;;;5046381;28;20209;-70
2023/03/11 18:12:08;;;;;;;1.60;1.50;;;4.20;89.30;;;;;;5045918;28;20421;-69
2023/03/11 18:14:35;;;;;;;1.53;1.47;;;4.10;89.70;;;;;;5045363;28;20197;-71
2023/03/11 18:17:01;;;;;;;1.63;1.60;;;4.00;90.00;;;;;;5046660;28;20162;-69
2023/03/11 18:19:26;;;;;;;1.93;1.83;;;3.90;90.10;;;;;;5046568;28;20196;-70